Ce_breeze — ELSQ7 — position and weather

sailwx.info

Track history (hours):
 
Tides and Currents Weather Stations Pressure Air Temp Water Temp Dewpoint Dewpoint Depression Visibility Wind Speed Wind Dir Waves Ship Positions

Ce_breeze

Last reported at 2014-Sep-10 14:04 UTC. Time now 2014-Sep-19 03:49 UTC.
Position N 35°51' E 032°56'.
Warning: this ship's position is 8 days out of date.

Length 240 m; draft 8 m.

Type: Tanker. MMSI: 636010400.

Date/timePositionNaut miles runAvg speedWind from/ knotsBaromVisibWave heightAir tempDewpointWater temp
2014-Sep-10 14:04N 35°51' E 032°56'34012.3
2014-Sep-09 10:20N 35°42' E 025°57'1012.9
2014-Sep-09 09:33N 35°47' E 025°46'1312.8
2014-Sep-09 08:33N 35°54' E 025°33'1312.5
2014-Sep-09 07:33N 36°01' E 025°20'1312.7
2014-Sep-09 06:33N 36°08' E 025°07'1313.0
2014-Sep-09 05:33N 36°15' E 024°53'1313.2
2014-Sep-09 04:33N 36°22' E 024°39'1312.7
2014-Sep-09 03:33N 36°29' E 024°26'1212.3
2014-Sep-09 02:33N 36°35' E 024°13'1412.8
2014-Sep-09 01:26N 36°49' E 024°07'1112.6
2014-Sep-09 00:33N 36°59' E 024°02'1712.4
2014-Sep-08 23:13N 37°15' E 023°55'2112.6
2014-Sep-08 21:32N 37°35' E 023°45'1212.6
2014-Sep-08 20:33N 37°46' E 023°38'7 7.1
2014-Sep-08 19:31N 37°50' E 023°31'0 0.0
2014-Sep-08 18:34N 37°50' E 023°31'0 0.0
2014-Sep-08 17:34N 37°50' E 023°31'0 0.0
2014-Sep-08 16:31N 37°50' E 023°31'0 0.0
2014-Sep-08 15:31N 37°50' E 023°31'0 0.0
2014-Sep-08 14:31N 37°50' E 023°31'0 0.2
2014-Sep-08 13:31N 37°50' E 023°31'0 0.0
2014-Sep-08 12:33N 37°50' E 023°31'4 3.6
2014-Sep-08 11:34N 37°53' E 023°35'5 4.5
2014-Sep-08 10:33N 37°57' E 023°34'4 0.1
2014-Sep-06 17:24N 38°01' E 023°35'3 1.1
2014-Sep-06 15:07N 38°01' E 023°32'0 0.0
2014-Sep-06 13:13N 38°01' E 023°32'0 0.2
2014-Sep-06 12:13N 38°01' E 023°32'3 3.3
2014-Sep-06 11:28N 37°58' E 023°33'6 6.2
2014-Sep-06 10:33N 37°54' E 023°38'9 9.0
2014-Sep-06 09:33N 37°46' E 023°42'4513.0
2014-Sep-06 06:04N 37°02' E 023°57'612.6
2014-Sep-06 05:33N 36°56' E 023°58'1312.4
2014-Sep-06 04:33N 36°44' E 023°57'1313.2
2014-Sep-06 03:33N 36°32' E 023°51'1312.6
2014-Sep-06 02:33N 36°20' E 023°44'1212.4
2014-Sep-06 01:33N 36°09' E 023°38'1312.5
2014-Sep-06 00:33N 35°57' E 023°32'  
Track history (hours):
 
Tides and Currents Weather Stations Pressure Air Temp Water Temp Dewpoint Dewpoint Depression Visibility Wind Speed Wind Dir Waves Ship Positions

Ce_breeze

Last reported at 2014-Sep-10 14:04 UTC. Time now 2014-Sep-19 03:49 UTC.
Position N 35°51' E 032°56'.
Warning: this ship's position is 8 days out of date.

Length 240 m; draft 8 m.

Type: Tanker. MMSI: 636010400.

Date/timePositionNaut miles runAvg speedWind from/ knotsBaromVisibWave heightAir tempDewpointWater temp
2014-Sep-10 14:04N 35°51' E 032°56'34012.3
2014-Sep-09 10:20N 35°42' E 025°57'1012.9
2014-Sep-09 09:33N 35°47' E 025°46'1312.8
2014-Sep-09 08:33N 35°54' E 025°33'1312.5
2014-Sep-09 07:33N 36°01' E 025°20'1312.7
2014-Sep-09 06:33N 36°08' E 025°07'1313.0
2014-Sep-09 05:33N 36°15' E 024°53'1313.2
2014-Sep-09 04:33N 36°22' E 024°39'1312.7
2014-Sep-09 03:33N 36°29' E 024°26'1212.3
2014-Sep-09 02:33N 36°35' E 024°13'1412.8
2014-Sep-09 01:26N 36°49' E 024°07'1112.6
2014-Sep-09 00:33N 36°59' E 024°02'1712.4
2014-Sep-08 23:13N 37°15' E 023°55'2112.6
2014-Sep-08 21:32N 37°35' E 023°45'1212.6
2014-Sep-08 20:33N 37°46' E 023°38'7 7.1
2014-Sep-08 19:31N 37°50' E 023°31'0 0.0
2014-Sep-08 18:34N 37°50' E 023°31'0 0.0
2014-Sep-08 17:34N 37°50' E 023°31'0 0.0
2014-Sep-08 16:31N 37°50' E 023°31'0 0.0
2014-Sep-08 15:31N 37°50' E 023°31'0 0.0
2014-Sep-08 14:31N 37°50' E 023°31'0 0.2
2014-Sep-08 13:31N 37°50' E 023°31'0 0.0
2014-Sep-08 12:33N 37°50' E 023°31'4 3.6
2014-Sep-08 11:34N 37°53' E 023°35'5 4.5
2014-Sep-08 10:33N 37°57' E 023°34'4 0.1
2014-Sep-06 17:24N 38°01' E 023°35'3 1.1
2014-Sep-06 15:07N 38°01' E 023°32'0 0.0
2014-Sep-06 13:13N 38°01' E 023°32'0 0.2
2014-Sep-06 12:13N 38°01' E 023°32'3 3.3
2014-Sep-06 11:28N 37°58' E 023°33'6 6.2
2014-Sep-06 10:33N 37°54' E 023°38'9 9.0
2014-Sep-06 09:33N 37°46' E 023°42'4513.0
2014-Sep-06 06:04N 37°02' E 023°57'612.6
2014-Sep-06 05:33N 36°56' E 023°58'1312.4
2014-Sep-06 04:33N 36°44' E 023°57'1313.2
2014-Sep-06 03:33N 36°32' E 023°51'1312.6
2014-Sep-06 02:33N 36°20' E 023°44'1212.4
2014-Sep-06 01:33N 36°09' E 023°38'1312.5
2014-Sep-06 00:33N 35°57' E 023°32'  

Dump ship's entire track history